sensor_id;sensor_type;location;lat;lon;timestamp;temperature;humidity
610;DHT22;292;48.800;9.216;2022-10-16T00:01:09;18.90;78.70
610;DHT22;292;48.800;9.216;2022-10-16T00:03:38;18.90;78.70
610;DHT22;292;48.800;9.216;2022-10-16T00:06:08;18.90;78.70
610;DHT22;292;48.800;9.216;2022-10-16T00:08:35;18.90;78.80
610;DHT22;292;48.800;9.216;2022-10-16T00:11:06;18.90;78.70
610;DHT22;292;48.800;9.216;2022-10-16T00:13:34;19.00;78.70
610;DHT22;292;48.800;9.216;2022-10-16T00:16:03;19.00;78.70
610;DHT22;292;48.800;9.216;2022-10-16T00:18:30;19.00;78.70
610;DHT22;292;48.800;9.216;2022-10-16T00:21:02;19.00;78.70
610;DHT22;292;48.800;9.216;2022-10-16T00:23:30;19.00;78.70
610;DHT22;292;48.800;9.216;2022-10-16T00:25:58;19.00;78.70
610;DHT22;292;48.800;9.216;2022-10-16T00:28:27;19.00;78.70
610;DHT22;292;48.800;9.216;2022-10-16T00:30:54;19.00;78.70
610;DHT22;292;48.800;9.216;2022-10-16T00:33:22;19.00;78.70
610;DHT22;292;48.800;9.216;2022-10-16T00:35:49;18.90;78.80
610;DHT22;292;48.800;9.216;2022-10-16T00:38:16;18.90;79.00
610;DHT22;292;48.800;9.216;2022-10-16T00:40:45;18.90;79.00
610;DHT22;292;48.800;9.216;2022-10-16T00:43:14;18.90;79.00
610;DHT22;292;48.800;9.216;2022-10-16T00:45:43;18.90;79.00
610;DHT22;292;48.800;9.216;2022-10-16T00:48:12;18.90;79.00
610;DHT22;292;48.800;9.216;2022-10-16T00:50:40;18.90;79.00
610;DHT22;292;48.800;9.216;2022-10-16T00:53:10;18.90;79.00
610;DHT22;292;48.800;9.216;2022-10-16T00:55:38;18.90;79.00
610;DHT22;292;48.800;9.216;2022-10-16T00:58:06;18.90;79.10
610;DHT22;292;48.800;9.216;2022-10-16T01:00:33;18.90;79.30
610;DHT22;292;48.800;9.216;2022-10-16T01:03:02;18.80;79.30
610;DHT22;292;48.800;9.216;2022-10-16T01:05:36;18.80;79.40
610;DHT22;292;48.800;9.216;2022-10-16T01:08:12;18.80;79.60
610;DHT22;292;48.800;9.216;2022-10-16T01:10:44;18.80;79.60
610;DHT22;292;48.800;9.216;2022-10-16T01:13:21;18.80;79.60
610;DHT22;292;48.800;9.216;2022-10-16T01:15:54;18.70;79.60
610;DHT22;292;48.800;9.216;2022-10-16T01:18:30;18.70;79.70
610;DHT22;292;48.800;9.216;2022-10-16T01:21:03;18.70;79.70
610;DHT22;292;48.800;9.216;2022-10-16T01:23:38;18.70;79.70
610;DHT22;292;48.800;9.216;2022-10-16T01:26:18;18.70;79.70
610;DHT22;292;48.800;9.216;2022-10-16T01:28:53;18.70;79.70
610;DHT22;292;48.800;9.216;2022-10-16T01:31:25;18.70;79.90
610;DHT22;292;48.800;9.216;2022-10-16T01:33:57;18.70;79.90
610;DHT22;292;48.800;9.216;2022-10-16T01:36:28;18.70;80.00
610;DHT22;292;48.800;9.216;2022-10-16T01:38:59;18.70;80.00
610;DHT22;292;48.800;9.216;2022-10-16T01:41:31;18.70;79.90
610;DHT22;292;48.800;9.216;2022-10-16T01:44:04;18.70;79.90
610;DHT22;292;48.800;9.216;2022-10-16T01:46:33;18.70;80.00
610;DHT22;292;48.800;9.216;2022-10-16T01:49:02;18.70;80.10
610;DHT22;292;48.800;9.216;2022-10-16T01:51:30;18.60;80.10
610;DHT22;292;48.800;9.216;2022-10-16T01:53:59;18.60;80.30
610;DHT22;292;48.800;9.216;2022-10-16T01:56:27;18.60;80.40
610;DHT22;292;48.800;9.216;2022-10-16T01:58:58;18.60;80.60
610;DHT22;292;48.800;9.216;2022-10-16T02:01:31;18.50;80.60
610;DHT22;292;48.800;9.216;2022-10-16T02:04:04;18.50;80.90
610;DHT22;292;48.800;9.216;2022-10-16T02:06:34;18.50;80.90
610;DHT22;292;48.800;9.216;2022-10-16T02:09:01;18.40;81.00
610;DHT22;292;48.800;9.216;2022-10-16T02:11:28;18.40;81.30
610;DHT22;292;48.800;9.216;2022-10-16T02:13:58;18.40;81.30
610;DHT22;292;48.800;9.216;2022-10-16T02:16:35;18.40;81.40
610;DHT22;292;48.800;9.216;2022-10-16T02:19:03;18.30;81.70
610;DHT22;292;48.800;9.216;2022-10-16T02:21:36;18.30;82.00
610;DHT22;292;48.800;9.216;2022-10-16T02:24:09;18.30;82.10
610;DHT22;292;48.800;9.216;2022-10-16T02:26:43;18.20;82.10
610;DHT22;292;48.800;9.216;2022-10-16T02:29:14;18.20;82.40
610;DHT22;292;48.800;9.216;2022-10-16T02:31:47;18.20;82.50
610;DHT22;292;48.800;9.216;2022-10-16T02:34:17;18.20;82.60
610;DHT22;292;48.800;9.216;2022-10-16T02:36:46;18.20;82.80
610;DHT22;292;48.800;9.216;2022-10-16T02:39:15;18.20;82.80
610;DHT22;292;48.800;9.216;2022-10-16T02:41:42;18.20;82.90
610;DHT22;292;48.800;9.216;2022-10-16T02:44:09;18.20;83.10
610;DHT22;292;48.800;9.216;2022-10-16T02:46:36;18.20;83.10
610;DHT22;292;48.800;9.216;2022-10-16T02:49:05;18.20;83.10
610;DHT22;292;48.800;9.216;2022-10-16T02:51:32;18.20;83.20
610;DHT22;292;48.800;9.216;2022-10-16T02:53:59;18.20;83.40
610;DHT22;292;48.800;9.216;2022-10-16T02:56:26;18.20;83.40
610;DHT22;292;48.800;9.216;2022-10-16T02:58:53;18.30;83.40
610;DHT22;292;48.800;9.216;2022-10-16T03:01:20;18.30;83.20
610;DHT22;292;48.800;9.216;2022-10-16T03:03:47;18.30;83.20
610;DHT22;292;48.800;9.216;2022-10-16T03:06:16;18.30;83.10
610;DHT22;292;48.800;9.216;2022-10-16T03:08:43;18.20;83.10
610;DHT22;292;48.800;9.216;2022-10-16T03:11:10;18.20;83.10
610;DHT22;292;48.800;9.216;2022-10-16T03:13:37;18.20;82.90
610;DHT22;292;48.800;9.216;2022-10-16T03:16:04;18.20;82.90
610;DHT22;292;48.800;9.216;2022-10-16T03:18:31;18.20;82.90
610;DHT22;292;48.800;9.216;2022-10-16T03:20:58;18.20;82.90
610;DHT22;292;48.800;9.216;2022-10-16T03:23:26;18.20;82.90
610;DHT22;292;48.800;9.216;2022-10-16T03:25:54;18.20;82.90
610;DHT22;292;48.800;9.216;2022-10-16T03:28:21;18.20;82.90
610;DHT22;292;48.800;9.216;2022-10-16T03:30:48;18.30;82.90
610;DHT22;292;48.800;9.216;2022-10-16T03:33:15;18.30;82.90
610;DHT22;292;48.800;9.216;2022-10-16T03:35:42;18.20;82.90
610;DHT22;292;48.800;9.216;2022-10-16T03:38:09;18.30;83.10
610;DHT22;292;48.800;9.216;2022-10-16T03:40:38;18.20;83.10
610;DHT22;292;48.800;9.216;2022-10-16T03:43:05;18.20;83.10
610;DHT22;292;48.800;9.216;2022-10-16T03:45:32;18.20;83.10
610;DHT22;292;48.800;9.216;2022-10-16T03:47:59;18.20;83.10
610;DHT22;292;48.800;9.216;2022-10-16T03:50:26;18.20;83.20
610;DHT22;292;48.800;9.216;2022-10-16T03:52:53;18.20;83.20
610;DHT22;292;48.800;9.216;2022-10-16T03:55:20;18.20;83.20
610;DHT22;292;48.800;9.216;2022-10-16T03:57:48;18.20;83.20
610;DHT22;292;48.800;9.216;2022-10-16T04:00:16;18.20;83.20
610;DHT22;292;48.800;9.216;2022-10-16T04:02:43;18.20;83.20
610;DHT22;292;48.800;9.216;2022-10-16T04:05:10;18.20;83.40
610;DHT22;292;48.800;9.216;2022-10-16T04:07:37;18.30;83.20
610;DHT22;292;48.800;9.216;2022-10-16T04:10:05;18.30;83.20
610;DHT22;292;48.800;9.216;2022-10-16T04:12:33;18.30;83.20
610;DHT22;292;48.800;9.216;2022-10-16T04:15:01;18.30;83.10
610;DHT22;292;48.800;9.216;2022-10-16T04:17:29;18.30;83.10
610;DHT22;292;48.800;9.216;2022-10-16T04:19:56;18.30;83.10
610;DHT22;292;48.800;9.216;2022-10-16T04:22:22;18.30;83.10
610;DHT22;292;48.800;9.216;2022-10-16T04:24:49;18.30;83.10
610;DHT22;292;48.800;9.216;2022-10-16T04:27:42;18.30;83.10
610;DHT22;292;48.800;9.216;2022-10-16T04:30:11;18.30;83.20
610;DHT22;292;48.800;9.216;2022-10-16T04:32:38;18.30;83.10
610;DHT22;292;48.800;9.216;2022-10-16T04:35:06;18.30;82.90
610;DHT22;292;48.800;9.216;2022-10-16T04:37:33;18.30;83.10
610;DHT22;292;48.800;9.216;2022-10-16T04:40:00;18.30;83.10
610;DHT22;292;48.800;9.216;2022-10-16T04:42:27;18.30;82.90
610;DHT22;292;48.800;9.216;2022-10-16T04:44:54;18.30;82.90
610;DHT22;292;48.800;9.216;2022-10-16T04:47:23;18.30;83.10
610;DHT22;292;48.800;9.216;2022-10-16T04:49:50;18.30;82.90
610;DHT22;292;48.800;9.216;2022-10-16T04:52:17;18.30;83.10
610;DHT22;292;48.800;9.216;2022-10-16T04:54:44;18.30;83.10
610;DHT22;292;48.800;9.216;2022-10-16T04:57:11;18.30;83.10
610;DHT22;292;48.800;9.216;2022-10-16T04:59:38;18.30;83.10
610;DHT22;292;48.800;9.216;2022-10-16T05:02:05;18.30;82.90
610;DHT22;292;48.800;9.216;2022-10-16T05:04:34;18.20;83.10
610;DHT22;292;48.800;9.216;2022-10-16T05:07:01;18.20;83.10
610;DHT22;292;48.800;9.216;2022-10-16T05:09:28;18.20;83.10
610;DHT22;292;48.800;9.216;2022-10-16T05:11:55;18.20;82.90
610;DHT22;292;48.800;9.216;2022-10-16T05:14:22;18.20;83.10
610;DHT22;292;48.800;9.216;2022-10-16T05:16:49;18.20;83.10
610;DHT22;292;48.800;9.216;2022-10-16T05:19:16;18.20;83.10
610;DHT22;292;48.800;9.216;2022-10-16T05:21:44;18.20;83.10
610;DHT22;292;48.800;9.216;2022-10-16T05:24:11;18.20;83.10
610;DHT22;292;48.800;9.216;2022-10-16T05:26:39;18.10;83.10
610;DHT22;292;48.800;9.216;2022-10-16T05:29:06;18.10;83.20
610;DHT22;292;48.800;9.216;2022-10-16T05:31:33;18.10;83.40
610;DHT22;292;48.800;9.216;2022-10-16T05:34:01;18.10;83.40
610;DHT22;292;48.800;9.216;2022-10-16T05:36:28;18.10;83.40
610;DHT22;292;48.800;9.216;2022-10-16T05:38:57;18.10;83.40
610;DHT22;292;48.800;9.216;2022-10-16T05:41:24;18.10;83.40
610;DHT22;292;48.800;9.216;2022-10-16T05:43:52;18.10;83.40
610;DHT22;292;48.800;9.216;2022-10-16T05:46:19;18.10;83.40
610;DHT22;292;48.800;9.216;2022-10-16T05:48:46;18.10;83.50
610;DHT22;292;48.800;9.216;2022-10-16T05:51:14;18.10;83.50
610;DHT22;292;48.800;9.216;2022-10-16T05:53:41;18.10;83.50
610;DHT22;292;48.800;9.216;2022-10-16T05:56:11;18.10;83.50
610;DHT22;292;48.800;9.216;2022-10-16T05:58:38;18.10;83.50
610;DHT22;292;48.800;9.216;2022-10-16T06:01:09;18.10;83.50
610;DHT22;292;48.800;9.216;2022-10-16T06:03:36;18.10;83.50
610;DHT22;292;48.800;9.216;2022-10-16T06:06:10;18.10;83.60
610;DHT22;292;48.800;9.216;2022-10-16T06:08:40;18.10;83.60
610;DHT22;292;48.800;9.216;2022-10-16T06:11:11;18.10;83.60
610;DHT22;292;48.800;9.216;2022-10-16T06:13:39;18.10;83.60
610;DHT22;292;48.800;9.216;2022-10-16T06:16:08;18.10;83.60
610;DHT22;292;48.800;9.216;2022-10-16T06:18:35;18.10;83.60
610;DHT22;292;48.800;9.216;2022-10-16T06:21:08;18.10;83.60
610;DHT22;292;48.800;9.216;2022-10-16T06:23:36;18.10;83.60
610;DHT22;292;48.800;9.216;2022-10-16T06:26:07;18.10;83.60
610;DHT22;292;48.800;9.216;2022-10-16T06:28:35;18.20;83.60
610;DHT22;292;48.800;9.216;2022-10-16T06:31:04;18.20;83.60
610;DHT22;292;48.800;9.216;2022-10-16T06:33:31;18.10;83.50
610;DHT22;292;48.800;9.216;2022-10-16T06:36:02;18.20;83.60
610;DHT22;292;48.800;9.216;2022-10-16T06:38:30;18.10;83.60
610;DHT22;292;48.800;9.216;2022-10-16T06:40:57;18.10;83.60
610;DHT22;292;48.800;9.216;2022-10-16T06:43:24;18.10;83.60
610;DHT22;292;48.800;9.216;2022-10-16T06:45:54;18.10;83.60
610;DHT22;292;48.800;9.216;2022-10-16T06:48:21;18.10;83.60
610;DHT22;292;48.800;9.216;2022-10-16T06:50:58;18.10;83.60
610;DHT22;292;48.800;9.216;2022-10-16T06:53:27;18.10;83.60
610;DHT22;292;48.800;9.216;2022-10-16T06:55:54;18.10;83.60
610;DHT22;292;48.800;9.216;2022-10-16T06:58:22;18.20;83.60
610;DHT22;292;48.800;9.216;2022-10-16T07:00:56;18.20;83.60
610;DHT22;292;48.800;9.216;2022-10-16T07:03:23;18.20;83.60
610;DHT22;292;48.800;9.216;2022-10-16T07:05:50;18.20;83.50
610;DHT22;292;48.800;9.216;2022-10-16T07:08:17;18.20;83.50
610;DHT22;292;48.800;9.216;2022-10-16T07:10:44;18.20;83.50
610;DHT22;292;48.800;9.216;2022-10-16T07:13:11;18.20;83.50
610;DHT22;292;48.800;9.216;2022-10-16T07:15:40;18.30;83.50
610;DHT22;292;48.800;9.216;2022-10-16T07:18:09;18.30;83.50
610;DHT22;292;48.800;9.216;2022-10-16T07:20:36;18.30;83.50
610;DHT22;292;48.800;9.216;2022-10-16T07:23:04;18.30;83.40
610;DHT22;292;48.800;9.216;2022-10-16T07:25:31;18.30;83.40
610;DHT22;292;48.800;9.216;2022-10-16T07:27:58;18.30;83.40
610;DHT22;292;48.800;9.216;2022-10-16T07:30:25;18.30;83.40
610;DHT22;292;48.800;9.216;2022-10-16T07:32:52;18.30;83.40
610;DHT22;292;48.800;9.216;2022-10-16T07:35:20;18.40;83.20
610;DHT22;292;48.800;9.216;2022-10-16T07:37:47;18.40;83.20
610;DHT22;292;48.800;9.216;2022-10-16T07:40:14;18.40;83.10
610;DHT22;292;48.800;9.216;2022-10-16T07:42:41;18.40;83.10
610;DHT22;292;48.800;9.216;2022-10-16T07:45:09;18.40;83.10
610;DHT22;292;48.800;9.216;2022-10-16T07:47:36;18.40;83.10
610;DHT22;292;48.800;9.216;2022-10-16T07:50:03;18.40;82.90
610;DHT22;292;48.800;9.216;2022-10-16T07:52:32;18.40;82.90
610;DHT22;292;48.800;9.216;2022-10-16T07:54:59;18.40;82.90
610;DHT22;292;48.800;9.216;2022-10-16T07:57:26;18.40;82.90
610;DHT22;292;48.800;9.216;2022-10-16T07:59:53;18.40;83.10
610;DHT22;292;48.800;9.216;2022-10-16T08:02:21;18.40;83.10
610;DHT22;292;48.800;9.216;2022-10-16T08:04:48;18.40;83.10
610;DHT22;292;48.800;9.216;2022-10-16T08:07:15;18.40;82.90
610;DHT22;292;48.800;9.216;2022-10-16T08:09:44;18.40;82.90
610;DHT22;292;48.800;9.216;2022-10-16T08:12:11;18.40;82.90
610;DHT22;292;48.800;9.216;2022-10-16T08:14:38;18.50;82.60
610;DHT22;292;48.800;9.216;2022-10-16T08:17:05;18.50;82.60
610;DHT22;292;48.800;9.216;2022-10-16T08:19:32;18.50;82.60
610;DHT22;292;48.800;9.216;2022-10-16T08:22:00;18.50;82.60
610;DHT22;292;48.800;9.216;2022-10-16T08:24:27;18.50;82.50
610;DHT22;292;48.800;9.216;2022-10-16T08:26:57;18.60;82.50
610;DHT22;292;48.800;9.216;2022-10-16T08:29:24;18.60;82.50
610;DHT22;292;48.800;9.216;2022-10-16T08:31:51;18.70;82.60
610;DHT22;292;48.800;9.216;2022-10-16T08:34:19;18.70;82.60
610;DHT22;292;48.800;9.216;2022-10-16T08:36:46;18.80;82.50
610;DHT22;292;48.800;9.216;2022-10-16T08:39:13;18.90;82.40
610;DHT22;292;48.800;9.216;2022-10-16T08:42:02;18.90;82.10
610;DHT22;292;48.800;9.216;2022-10-16T08:44:46;19.00;81.90
610;DHT22;292;48.800;9.216;2022-10-16T08:47:19;19.00;81.70
610;DHT22;292;48.800;9.216;2022-10-16T08:49:57;19.10;81.40
610;DHT22;292;48.800;9.216;2022-10-16T08:52:30;19.20;81.30
610;DHT22;292;48.800;9.216;2022-10-16T08:54:59;19.20;81.20
610;DHT22;292;48.800;9.216;2022-10-16T08:57:27;19.30;80.90
610;DHT22;292;48.800;9.216;2022-10-16T08:59:59;19.30;80.70
610;DHT22;292;48.800;9.216;2022-10-16T09:02:32;19.40;80.70
610;DHT22;292;48.800;9.216;2022-10-16T09:07:59;19.40;80.30
610;DHT22;292;48.800;9.216;2022-10-16T09:10:37;19.50;79.90
610;DHT22;292;48.800;9.216;2022-10-16T09:13:17;19.60;79.70
610;DHT22;292;48.800;9.216;2022-10-16T09:15:52;19.60;79.40
610;DHT22;292;48.800;9.216;2022-10-16T09:18:27;19.60;79.10
610;DHT22;292;48.800;9.216;2022-10-16T09:20:59;19.70;79.00
610;DHT22;292;48.800;9.216;2022-10-16T09:23:29;19.80;78.80
610;DHT22;292;48.800;9.216;2022-10-16T09:25:58;19.80;78.70
610;DHT22;292;48.800;9.216;2022-10-16T09:28:27;19.90;78.60
610;DHT22;292;48.800;9.216;2022-10-16T09:30:54;20.00;78.40
610;DHT22;292;48.800;9.216;2022-10-16T09:33:25;20.10;78.30
610;DHT22;292;48.800;9.216;2022-10-16T09:35:56;20.20;78.00
610;DHT22;292;48.800;9.216;2022-10-16T09:38:26;20.30;77.70
610;DHT22;292;48.800;9.216;2022-10-16T09:40:54;20.30;77.30
610;DHT22;292;48.800;9.216;2022-10-16T09:43:24;20.40;77.00
610;DHT22;292;48.800;9.216;2022-10-16T09:45:56;20.50;76.20
610;DHT22;292;48.800;9.216;2022-10-16T09:48:25;20.60;76.10
610;DHT22;292;48.800;9.216;2022-10-16T09:50:58;20.60;75.80
610;DHT22;292;48.800;9.216;2022-10-16T09:53:37;20.70;75.70
610;DHT22;292;48.800;9.216;2022-10-16T09:56:05;20.80;75.50
610;DHT22;292;48.800;9.216;2022-10-16T09:58:33;20.90;75.20
610;DHT22;292;48.800;9.216;2022-10-16T10:01:01;21.00;74.70
610;DHT22;292;48.800;9.216;2022-10-16T10:03:35;21.10;74.20
610;DHT22;292;48.800;9.216;2022-10-16T10:06:13;21.20;73.50
610;DHT22;292;48.800;9.216;2022-10-16T10:08:59;21.30;73.10
610;DHT22;292;48.800;9.216;2022-10-16T10:11:48;21.40;72.20
610;DHT22;292;48.800;9.216;2022-10-16T10:14:22;21.50;71.80
610;DHT22;292;48.800;9.216;2022-10-16T10:17:01;21.60;71.60
610;DHT22;292;48.800;9.216;2022-10-16T10:19:28;21.70;71.60
610;DHT22;292;48.800;9.216;2022-10-16T10:21:55;21.80;71.50
610;DHT22;292;48.800;9.216;2022-10-16T10:24:22;21.80;71.50
610;DHT22;292;48.800;9.216;2022-10-16T10:26:54;21.90;71.50
610;DHT22;292;48.800;9.216;2022-10-16T10:29:36;21.90;71.30
610;DHT22;292;48.800;9.216;2022-10-16T10:32:20;22.10;71.30
610;DHT22;292;48.800;9.216;2022-10-16T10:35:02;22.10;70.80
610;DHT22;292;48.800;9.216;2022-10-16T10:37:43;22.20;69.90
610;DHT22;292;48.800;9.216;2022-10-16T10:40:28;22.30;69.50
610;DHT22;292;48.800;9.216;2022-10-16T10:43:01;22.40;69.20
610;DHT22;292;48.800;9.216;2022-10-16T10:45:41;22.50;69.00
610;DHT22;292;48.800;9.216;2022-10-16T10:48:26;22.70;68.70
610;DHT22;292;48.800;9.216;2022-10-16T10:51:01;22.80;68.30
610;DHT22;292;48.800;9.216;2022-10-16T10:53:37;22.90;67.90
610;DHT22;292;48.800;9.216;2022-10-16T10:56:17;23.00;67.60
610;DHT22;292;48.800;9.216;2022-10-16T11:01:54;23.40;66.70
610;DHT22;292;48.800;9.216;2022-10-16T11:04:42;23.60;66.20
610;DHT22;292;48.800;9.216;2022-10-16T11:07:17;23.90;65.60
610;DHT22;292;48.800;9.216;2022-10-16T11:09:47;24.10;65.00
610;DHT22;292;48.800;9.216;2022-10-16T11:12:25;24.20;64.10
610;DHT22;292;48.800;9.216;2022-10-16T11:14:58;24.40;63.30
610;DHT22;292;48.800;9.216;2022-10-16T11:17:35;24.50;63.00
610;DHT22;292;48.800;9.216;2022-10-16T11:20:12;24.70;62.50
610;DHT22;292;48.800;9.216;2022-10-16T11:22:53;24.80;62.10
610;DHT22;292;48.800;9.216;2022-10-16T11:25:23;24.90;61.70
610;DHT22;292;48.800;9.216;2022-10-16T11:27:56;24.90;61.40
610;DHT22;292;48.800;9.216;2022-10-16T11:30:27;25.00;61.00
610;DHT22;292;48.800;9.216;2022-10-16T11:33:04;25.10;60.70
610;DHT22;292;48.800;9.216;2022-10-16T11:35:42;25.20;60.00
610;DHT22;292;48.800;9.216;2022-10-16T11:38:15;25.40;59.40
610;DHT22;292;48.800;9.216;2022-10-16T11:40:48;25.50;58.90
610;DHT22;292;48.800;9.216;2022-10-16T11:43:24;25.70;58.20
610;DHT22;292;48.800;9.216;2022-10-16T11:45:53;25.70;57.80
610;DHT22;292;48.800;9.216;2022-10-16T11:48:27;25.80;57.60
610;DHT22;292;48.800;9.216;2022-10-16T11:51:02;26.00;57.00
610;DHT22;292;48.800;9.216;2022-10-16T11:53:41;26.10;57.00
610;DHT22;292;48.800;9.216;2022-10-16T11:56:12;26.20;56.60
610;DHT22;292;48.800;9.216;2022-10-16T11:58:44;26.30;56.00
610;DHT22;292;48.800;9.216;2022-10-16T12:01:18;26.50;55.30
610;DHT22;292;48.800;9.216;2022-10-16T12:04:06;26.60;55.00
610;DHT22;292;48.800;9.216;2022-10-16T12:06:42;26.70;54.20
610;DHT22;292;48.800;9.216;2022-10-16T12:09:21;26.80;54.00
610;DHT22;292;48.800;9.216;2022-10-16T12:11:48;26.90;53.30
610;DHT22;292;48.800;9.216;2022-10-16T12:14:22;27.00;52.90
610;DHT22;292;48.800;9.216;2022-10-16T12:17:00;27.00;52.80
610;DHT22;292;48.800;9.216;2022-10-16T12:19:29;27.10;52.50
610;DHT22;292;48.800;9.216;2022-10-16T12:22:00;27.10;52.00
610;DHT22;292;48.800;9.216;2022-10-16T12:24:33;27.20;51.00
610;DHT22;292;48.800;9.216;2022-10-16T12:27:01;27.20;50.00
610;DHT22;292;48.800;9.216;2022-10-16T12:29:33;27.20;49.80
610;DHT22;292;48.800;9.216;2022-10-16T12:32:01;27.30;49.40
610;DHT22;292;48.800;9.216;2022-10-16T12:34:32;27.30;49.40
610;DHT22;292;48.800;9.216;2022-10-16T12:37:12;27.30;49.20
610;DHT22;292;48.800;9.216;2022-10-16T12:39:39;27.30;48.80
610;DHT22;292;48.800;9.216;2022-10-16T12:42:21;27.30;48.90
610;DHT22;292;48.800;9.216;2022-10-16T12:44:48;27.40;48.80
610;DHT22;292;48.800;9.216;2022-10-16T12:47:21;27.40;49.00
610;DHT22;292;48.800;9.216;2022-10-16T12:49:50;27.30;48.80
610;DHT22;292;48.800;9.216;2022-10-16T12:52:36;27.30;48.80
610;DHT22;292;48.800;9.216;2022-10-16T12:55:05;27.30;48.80
610;DHT22;292;48.800;9.216;2022-10-16T12:57:46;27.30;48.90
610;DHT22;292;48.800;9.216;2022-10-16T13:00:22;27.20;49.00
610;DHT22;292;48.800;9.216;2022-10-16T13:03:14;27.20;49.20
610;DHT22;292;48.800;9.216;2022-10-16T13:05:57;27.20;49.00
610;DHT22;292;48.800;9.216;2022-10-16T13:08:42;27.10;49.20
610;DHT22;292;48.800;9.216;2022-10-16T13:11:17;27.00;49.30
610;DHT22;292;48.800;9.216;2022-10-16T13:14:01;27.00;49.40
610;DHT22;292;48.800;9.216;2022-10-16T13:16:43;26.90;49.60
610;DHT22;292;48.800;9.216;2022-10-16T13:19:23;26.80;49.80
610;DHT22;292;48.800;9.216;2022-10-16T13:21:59;26.70;50.10
610;DHT22;292;48.800;9.216;2022-10-16T13:24:42;26.70;50.40
610;DHT22;292;48.800;9.216;2022-10-16T13:27:21;26.60;50.50
610;DHT22;292;48.800;9.216;2022-10-16T13:29:54;26.60;50.80
610;DHT22;292;48.800;9.216;2022-10-16T13:32:27;26.60;50.80
610;DHT22;292;48.800;9.216;2022-10-16T13:34:54;26.50;50.90
610;DHT22;292;48.800;9.216;2022-10-16T13:37:24;26.50;51.00
610;DHT22;292;48.800;9.216;2022-10-16T13:40:04;26.40;51.00
610;DHT22;292;48.800;9.216;2022-10-16T13:42:34;26.40;51.20
610;DHT22;292;48.800;9.216;2022-10-16T13:45:01;26.30;51.30
610;DHT22;292;48.800;9.216;2022-10-16T13:47:29;26.30;51.30
610;DHT22;292;48.800;9.216;2022-10-16T13:50:00;26.30;51.60
610;DHT22;292;48.800;9.216;2022-10-16T13:52:27;26.30;51.70
610;DHT22;292;48.800;9.216;2022-10-16T13:54:56;26.20;51.80
610;DHT22;292;48.800;9.216;2022-10-16T13:57:24;26.20;51.80
610;DHT22;292;48.800;9.216;2022-10-16T13:59:52;26.20;51.70
610;DHT22;292;48.800;9.216;2022-10-16T14:02:24;26.20;51.60
610;DHT22;292;48.800;9.216;2022-10-16T14:04:52;26.20;51.60
610;DHT22;292;48.800;9.216;2022-10-16T14:07:23;26.10;51.70
610;DHT22;292;48.800;9.216;2022-10-16T14:09:52;26.10;51.70
610;DHT22;292;48.800;9.216;2022-10-16T14:12:22;26.10;51.70
610;DHT22;292;48.800;9.216;2022-10-16T14:14:51;26.10;51.60
610;DHT22;292;48.800;9.216;2022-10-16T14:17:21;26.10;51.60
610;DHT22;292;48.800;9.216;2022-10-16T14:19:50;26.00;51.40
610;DHT22;292;48.800;9.216;2022-10-16T14:22:28;26.00;51.60
610;DHT22;292;48.800;9.216;2022-10-16T14:24:55;26.00;51.80
610;DHT22;292;48.800;9.216;2022-10-16T14:27:31;25.90;52.10
610;DHT22;292;48.800;9.216;2022-10-16T14:30:12;25.90;52.40
610;DHT22;292;48.800;9.216;2022-10-16T14:32:40;25.80;52.40
610;DHT22;292;48.800;9.216;2022-10-16T14:35:23;25.80;52.50
610;DHT22;292;48.800;9.216;2022-10-16T14:37:52;25.70;52.90
610;DHT22;292;48.800;9.216;2022-10-16T14:40:21;25.70;53.20
610;DHT22;292;48.800;9.216;2022-10-16T14:42:51;25.60;53.60
610;DHT22;292;48.800;9.216;2022-10-16T14:45:20;25.60;53.80
610;DHT22;292;48.800;9.216;2022-10-16T14:47:50;25.60;54.00
610;DHT22;292;48.800;9.216;2022-10-16T14:50:17;25.50;54.20
610;DHT22;292;48.800;9.216;2022-10-16T14:52:44;25.50;54.50
610;DHT22;292;48.800;9.216;2022-10-16T14:55:11;25.40;54.80
610;DHT22;292;48.800;9.216;2022-10-16T14:57:39;25.40;55.00
610;DHT22;292;48.800;9.216;2022-10-16T15:00:22;25.40;55.30
610;DHT22;292;48.800;9.216;2022-10-16T15:02:50;25.40;56.00
610;DHT22;292;48.800;9.216;2022-10-16T15:05:19;25.30;56.10
610;DHT22;292;48.800;9.216;2022-10-16T15:07:48;25.30;56.40
610;DHT22;292;48.800;9.216;2022-10-16T15:10:17;25.20;56.80
610;DHT22;292;48.800;9.216;2022-10-16T15:12:44;25.20;56.90
610;DHT22;292;48.800;9.216;2022-10-16T15:15:24;25.20;57.00
610;DHT22;292;48.800;9.216;2022-10-16T15:17:52;25.10;57.40
610;DHT22;292;48.800;9.216;2022-10-16T15:20:22;25.10;57.70
610;DHT22;292;48.800;9.216;2022-10-16T15:22:49;25.10;57.80
610;DHT22;292;48.800;9.216;2022-10-16T15:25:27;25.00;58.00
610;DHT22;292;48.800;9.216;2022-10-16T15:27:56;25.00;58.20
610;DHT22;292;48.800;9.216;2022-10-16T15:30:25;25.00;58.20
610;DHT22;292;48.800;9.216;2022-10-16T15:32:52;25.00;58.50
610;DHT22;292;48.800;9.216;2022-10-16T15:35:19;25.00;58.60
610;DHT22;292;48.800;9.216;2022-10-16T15:37:47;25.00;58.80
610;DHT22;292;48.800;9.216;2022-10-16T15:40:15;24.90;58.90
610;DHT22;292;48.800;9.216;2022-10-16T15:42:42;24.90;58.90
610;DHT22;292;48.800;9.216;2022-10-16T15:45:10;24.90;59.00
610;DHT22;292;48.800;9.216;2022-10-16T15:47:38;24.90;59.00
610;DHT22;292;48.800;9.216;2022-10-16T15:50:06;24.90;59.20
610;DHT22;292;48.800;9.216;2022-10-16T15:52:33;24.80;59.30
610;DHT22;292;48.800;9.216;2022-10-16T15:55:12;24.80;59.40
610;DHT22;292;48.800;9.216;2022-10-16T15:57:40;24.80;59.60
610;DHT22;292;48.800;9.216;2022-10-16T16:00:10;24.80;59.70
610;DHT22;292;48.800;9.216;2022-10-16T16:02:39;24.70;59.80
610;DHT22;292;48.800;9.216;2022-10-16T16:05:07;24.70;60.00
610;DHT22;292;48.800;9.216;2022-10-16T16:07:35;24.70;60.10
610;DHT22;292;48.800;9.216;2022-10-16T16:10:05;24.60;60.20
610;DHT22;292;48.800;9.216;2022-10-16T16:12:33;24.60;60.50
610;DHT22;292;48.800;9.216;2022-10-16T16:15:00;24.60;60.50
610;DHT22;292;48.800;9.216;2022-10-16T16:17:27;24.60;60.80
610;DHT22;292;48.800;9.216;2022-10-16T16:19:55;24.50;61.00
610;DHT22;292;48.800;9.216;2022-10-16T16:22:22;24.50;61.10
610;DHT22;292;48.800;9.216;2022-10-16T16:24:49;24.50;61.20
610;DHT22;292;48.800;9.216;2022-10-16T16:27:17;24.40;61.50
610;DHT22;292;48.800;9.216;2022-10-16T16:29:45;24.40;61.70
610;DHT22;292;48.800;9.216;2022-10-16T16:32:12;24.30;62.10
610;DHT22;292;48.800;9.216;2022-10-16T16:34:39;24.30;62.40
610;DHT22;292;48.800;9.216;2022-10-16T16:37:08;24.20;62.70
610;DHT22;292;48.800;9.216;2022-10-16T16:39:36;24.20;63.40
610;DHT22;292;48.800;9.216;2022-10-16T16:42:03;24.10;63.70
610;DHT22;292;48.800;9.216;2022-10-16T16:44:31;24.00;64.00
610;DHT22;292;48.800;9.216;2022-10-16T16:46:59;24.00;64.40
610;DHT22;292;48.800;9.216;2022-10-16T16:49:25;23.90;64.60
610;DHT22;292;48.800;9.216;2022-10-16T16:51:53;23.90;64.90
610;DHT22;292;48.800;9.216;2022-10-16T16:54:21;23.80;65.10
610;DHT22;292;48.800;9.216;2022-10-16T16:56:48;23.70;65.40
610;DHT22;292;48.800;9.216;2022-10-16T16:59:17;23.70;65.70
610;DHT22;292;48.800;9.216;2022-10-16T17:01:45;23.60;65.90